Tiempo atmosférico en la estación meteorológica de Barcena de Cicero, Treto, Cantabria (10 m.)



Fecha
DESCASC
Temp. máxima en grados centígrados (hora)
DESCASC
Temp. mínima en grados centígrados (hora)
DESCASC
Temp. media en grados centígrados
DESCASC
Racha de viento máxima en m/sg (hora)
DESCASC
Velocidad máxima media en intervalos de 10 minutos(hora)
DESCASC
Precipitaciones diarias en mm
DESCASC
Precipitaciones de 00:00 a 06:00 en mm
DESCASC
Precipitaciones de 06:00 a 12:00 en mm
DESCASC
Precipitaciones de 12:00 a 18:00 en mm
DESCASC
Precipitaciones de 18:00 a 24:00 en mm
DESCASC
15-11-2018 23.5 (13:50) 10.3 (23:59) 16.9 8.33 (05:10) 4.44 (04:50) 0 0 0 0 0
14-11-2018 21.5 (15:00) 6.1 (08:10) 13.8 7.22 (12:50) 3.89 (13:20) 0 0 0 0 0
13-11-2018 16.8 (12:30) 8.8 (23:59) 12.8 9.17 (13:50) 6.11 (14:00) 0 0 0 0 0
12-11-2018 14.9 (15:30) 11.2 (06:30) 13 5.28 (04:00) 3.33 (02:40) 10.8 8.4 0.8 0 1.6
11-11-2018 21.3 (13:50) 8.4 (00:00) 14.8 13.06 (06:50) 7.22 (14:10) 13.4 0 0 5.8 7.6
10-11-2018 19 (03:40) 8.6 (00:00) 13.8 8.06 (02:20) 4.17 (01:50) 0.8 0 0.6 0.2 0
09-11-2018 17.5 (15:30) 10.3 (00:00) 13.9 8.89 (23:10) 4.72 (23:00) 8.8 8.8 0 0 0
08-11-2018 18.8 (16:10) 7.7 (00:00) 13.2 10 (11:20) 5.83 (11:30) 1.6 0 0 0 1.6
07-11-2018 18.2 (02:30) 8.4 (00:00) 13.3 13.33 (01:50) 5.56 (00:30) 0 0 0 0 0
06-11-2018 17.1 (20:30) 9.3 (00:00) 13.2 12.78 (03:10) 6.11 (02:20) 10.4 9.2 0.4 0.4 0.4
05-11-2018 17.3 (02:40) 8.7 (00:00) 13 11.67 (04:10) 6.67 (04:10) 6.8 0 0.8 0 6
04-11-2018 15.6 (23:59) 4.9 (00:00) 10.3 7.78 (05:40) 5 (06:20) 0 0 0 0 0
03-11-2018 14.4 (13:50) 5.8 (00:00) 10.1 6.94 (15:10) 4.72 (13:10) 0 0 0 0 0
02-11-2018 15 (15:20) 8.3 (00:00) 11.7 4.44 (16:00) 2.78 (16:00) 22.2 22 0.2 0 0
01-11-2018 15.5 (12:50) 10.6 (00:00) 13.1 8.06 (07:20) 3.61 (01:20) 1 0 0 0.2 0.8
31-10-2018 14.3 (14:50) 7.2 (00:00) 10.8 8.89 (19:20) 4.44 (19:20) 17.6 0 0 0.4 17.2
30-10-2018 15.6 (12:50) 3.7 (00:00) 9.7 7.5 (19:50) 4.17 (20:00) 0.6 0 0 0 0.6
29-10-2018 12.9 (14:40) 6.2 (00:00) 9.5 16.67 (07:00) 7.22 (12:40) 21.4 9.6 5.2 3.8 2.8
28-10-2018 10 (12:00) 5.2 (00:00) 7.6 9.72 (16:10) 5.56 (14:30) 30.6 6 2 8.8 13.8
27-10-2018 13.7 (00:00) 5.7 (00:00) 9.7 8.89 (10:50) 4.72 (10:50) 33.4 14.8 0.6 15.4 2.6
26-10-2018 16.7 (17:20) 12.1 (00:00) 14.4 5.56 (21:50) 3.06 (20:20) 0.6 0 0 0 0.6
25-10-2018 18.6 (13:30) 7.2 (00:00) 12.9 5.28 (00:40) 3.06 (15:30) 0 0 0 0 0
24-10-2018 18.2 (14:20) 8.2 (00:00) 13.2 5.83 (10:30) 3.61 (11:00) 0 0 0 0 0
23-10-2018 18.1 (15:30) 11.9 (00:00) 15 6.11 (14:30) 4.17 (14:40) 0 0 0 0 0
22-10-2018 19.2 (14:10) 12.6 (00:00) 15.9 6.11 (13:30) 3.33 (12:20) 0 0 0 0 0
21-10-2018 18.5 (15:00) 11.5 (00:00) 15 5.28 (16:10) 3.33 (16:10) 0 0 0 0 0
20-10-2018 19.2 (14:20) 13.5 (00:00) 16.4 5.83 (21:40) 3.61 (18:00) 0 0 0 0 0
19-10-2018 20.6 (16:20) 15.4 (00:00) 18 6.11 (13:00) 3.89 (15:40) 0 0 0 0 0
18-10-2018 18.2 (13:00) 15.3 (00:00) 16.8 3.33 (15:30) 1.94 (14:10) 5.8 0 0 5.8 0

Gráficas

Temp. máximas Temp. mínimas Temp. medias Precipitaciones Rachas de viento máximas Velocidades máximas media en intervalos de 10 minutos

Datos horarios

Fecha y hora oficial Temperatura (ºC) Velocidad del viento (km/h) Dirección del viento Racha (km/h) Dirección de racha Precipitación (mm) Presión (hPa) Tendencia (hPa) Humedad (%)
2018-11-16 23:00:00 16.5 18 Sudeste 27 Sudeste 0 -- -- 70
2018-11-16 22:00:00 15.4 6 Sur 14 Sudoeste 0 -- -- 74
2018-11-16 21:00:00 16.6 9 Sudeste 23 Sudeste 0 -- -- 69
2018-11-16 20:00:00 17.2 7 Sur 26 Sudeste 0 -- -- 66
2018-11-16 19:00:00 18 14 Sudeste 27 Sudeste 0 -- -- 63
2018-11-16 18:00:00 18.5 16 Sudeste 32 Sudeste 0 -- -- 61
2018-11-16 17:00:00 18.9 11 Sudeste 23 Sudeste 0 -- -- 61
2018-11-16 16:00:00 20.1 14 Sudeste 26 Sudeste 0 -- -- 60
2018-11-16 15:00:00 21.1 12 Sudeste 24 Sudeste 0 -- -- 57
2018-11-16 14:00:00 21.1 10 Sudeste 21 Sudeste 0 -- -- 55
2018-11-16 13:00:00 20.8 12 Sudeste 22 Sudeste 0 -- -- 60
2018-11-16 12:00:00 19.9 2 Sudoeste 10 Sudeste 0 -- -- 62
2018-11-16 11:00:00 16.8 7 Sudeste 11 Sudeste 0 -- -- 77
2018-11-16 10:00:00 13.1 4 Sur 6 Sur 0 -- -- 97
2018-11-16 09:00:00 9.4 0 Calma 5 Sur 0 -- -- 97
2018-11-16 08:00:00 9.8 0 Calma 6 Sur 0 -- -- 95
2018-11-16 07:00:00 10.2 5 Sur 19 Sur 0 -- -- 94
2018-11-16 06:00:00 9.8 2 Sudoeste 9 Noroeste 0 -- -- 95
2018-11-16 05:00:00 11.9 7 Sur 19 Sudoeste 0 -- -- 90
2018-11-16 04:00:00 10.3 6 Sur 19 Sur 0 -- -- 98
2018-11-16 03:00:00 9.1 0 Calma 8 Sudoeste 0 -- -- 98
2018-11-16 02:00:00 9.9 4 Sur 9 Sur 0 -- -- 98
2018-11-16 01:00:00 9.9 0 Calma 9 Sur 0 -- -- 97
2018-11-16 00:00:00 10.3 0 Calma 7 Sudeste 0 -- -- 97
2018-11-15 23:00:00 11.4 6 Sur 11 Sur 0 -- -- 97
2018-11-15 22:00:00 11.7 4 Sur 9 Sur 0 -- -- 96
2018-11-15 21:00:00 12.4 3 Oeste 9 Sur 0 -- -- 95
2018-11-15 20:00:00 13.1 0 Calma 11 Sur 0 -- -- 94
2018-11-15 19:00:00 13.8 2 Noroeste 4 Noroeste 0 -- -- 91
2018-11-15 18:00:00 15.9 2 Noroeste 8 Nordeste 0 -- -- 81
2018-11-15 17:00:00 18.2 3 Este 13 Norte 0 -- -- 75
2018-11-15 16:00:00 19.1 10 Noroeste 17 Nordeste 0 -- -- 69
2018-11-15 15:00:00 20.9 8 Norte 15 Norte 0 -- -- 55
2018-11-15 14:00:00 23.2 4 Noroeste 15 Sudeste 0 -- -- 45
2018-11-15 13:00:00 22.3 10 Sudeste 18 Sudeste 0 -- -- 56
2018-11-15 12:00:00 21.7 5 Sudeste 20 Sudeste 0 -- -- 59
2018-11-15 11:00:00 19.8 10 Sudeste 23 Sudeste 0 -- -- 63
2018-11-15 10:00:00 17.6 9 Sur 21 Sur 0 -- -- 70
2018-11-15 09:00:00 14 6 Sur 15 Sudeste 0 -- -- 82
2018-11-15 08:00:00 14.7 3 Sudoeste 17 Sudeste 0 -- -- 78
2018-11-15 07:00:00 15.4 5 Sur 24 Sudeste 0 -- -- 75
2018-11-15 06:00:00 15.8 5 Sudeste 30 Sudeste 0 -- -- 75
2018-11-15 05:00:00 16.2 15 Sur 28 Sudeste 0 -- -- 74
2018-11-15 04:00:00 15.6 10 Sudeste 24 Sudeste 0 -- -- 76
2018-11-15 03:00:00 14.9 8 Sur 12 Sudeste 0 -- -- 80
2018-11-15 02:00:00 14.2 5 Sudeste 11 Sudoeste 0 -- -- 83
2018-11-15 01:00:00 13.9 3 Oeste 17 Sudeste 0 -- -- 82
2018-11-15 00:00:00 13.5 4 Sur 15 Sudeste 0 -- -- 83
2018-11-14 23:00:00 12.6 4 Noroeste 10 Sudoeste 0 -- -- 90
2018-11-14 22:00:00 13 3 Oeste 20 Sudeste 0 -- -- 88
2018-11-14 21:00:00 15.3 4 Noroeste 26 Sudeste 0 -- -- 79
2018-11-14 20:00:00 16 5 Sur 19 Sudeste 0 -- -- 78
2018-11-14 19:00:00 17.5 10 Sudeste 23 Sudeste 0 -- -- 72
2018-11-14 18:00:00 17.6 8 Sur 21 Sudeste 0 -- -- 73
2018-11-14 17:00:00 18.2 6 Sur 19 Sudeste 0 -- -- 68
2018-11-14 16:00:00 20.6 11 Sudeste 23 Sudeste 0 -- -- 61
2018-11-14 15:00:00 21.5 11 Sudeste 20 Sudeste 0 -- -- 58
2018-11-14 14:00:00 20.9 10 Sudeste 25 Sur 0 -- -- 62
2018-11-14 13:00:00 20.1 10 Sudeste 26 Sudeste 0 -- -- 63
2018-11-14 12:00:00 17 4 Noroeste 9 Noroeste 0 -- -- 86
2018-11-14 11:00:00 13.6 4 Noroeste 5 Noroeste 0 -- -- 100
2018-11-14 10:00:00 10.7 2 Nordeste 8 Sudeste 0 -- -- 100
2018-11-14 09:00:00 7.6 4 Sudeste 7 Sudeste 0 -- -- 100
2018-11-14 08:00:00 6.4 3 Noroeste 4 Noroeste 0 -- -- 100
2018-11-14 07:00:00 6.6 0 Calma 4 Oeste 0 -- -- 100
2018-11-14 06:00:00 6.9 0 Calma 6 Oeste 0 -- -- 100
2018-11-14 05:00:00 7.3 2 Sur 6 Sudeste 0 -- -- 100
2018-11-14 04:00:00 8 4 Sur 8 Sur 0 -- -- 100
2018-11-14 03:00:00 7.2 3 Sur 6 Sudeste 0 -- -- 100
2018-11-14 02:00:00 7.8 3 Oeste 9 Sudeste 0 -- -- 100
2018-11-14 01:00:00 8.1 3 Sur 6 Sudeste 0 -- -- 99
2018-11-14 00:00:00 8.8 2 Sudeste 5 Sur 0 -- -- 99
2018-11-13 23:00:00 9.9 3 Sudoeste 12 Sudoeste 0 -- -- 99
2018-11-13 22:00:00 10.2 3 Sudeste 8 Sur 0 -- -- 98
2018-11-13 21:00:00 10.8 3 Sur 10 Sudeste 0 -- -- 98
2018-11-13 20:00:00 11.5 4 Sudeste 8 Este 0 -- -- 94
2018-11-13 19:00:00 13 3 Este 18 Nordeste 0 -- -- 90
2018-11-13 18:00:00 14 10 Nordeste 19 Nordeste 0 -- -- 89
2018-11-13 17:00:00 14.7 14 Este 28 Este 0 -- -- 86
2018-11-13 16:00:00 15.2 18 Nordeste 32 Este 0 -- -- 86
2018-11-13 15:00:00 15.6 18 Nordeste 30 Nordeste 0 -- -- 82
2018-11-13 14:00:00 14.9 22 Nordeste 33 Este 0 -- -- 86
2018-11-13 13:00:00 16.2 15 Nordeste 20 Nordeste 0 -- -- 80
2018-11-13 12:00:00 16.1 5 Sudeste 15 Sudeste 0 -- -- 78
2018-11-13 11:00:00 14.2 5 Sudeste 14 Sudeste 0 -- -- 93
2018-11-13 10:00:00 12.3 5 Sur 12 Sudeste 0 -- -- 98
2018-11-13 09:00:00 11.7 3 Sur 10 Sur 0 -- -- 99
2018-11-13 08:00:00 11.5 4 Sur 10 Sudeste 0 -- -- 99
2018-11-13 07:00:00 11.6 7 Sur 13 Sur 0 -- -- 99
2018-11-13 06:00:00 11.5 6 Sudoeste 11 Sur 0 -- -- 99
2018-11-13 05:00:00 11.5 6 Sur 10 Sur 0 -- -- 99
2018-11-13 04:00:00 11.6 5 Sur 13 Sudeste 0 -- -- 99
2018-11-13 03:00:00 11.7 5 Sur 12 Sudeste 0 -- -- 99
2018-11-13 02:00:00 11.8 5 Sur 11 Sur 0 -- -- 98
2018-11-13 01:00:00 11.9 5 Sur 10 Sudeste 0 -- -- 98
2018-11-13 00:00:00 12.1 5 Sur 11 Sudeste 0 -- -- 98
2018-11-12 23:00:00 12.1 4 Sur 12 Sudeste 0 -- -- 98
2018-11-12 22:00:00 12.2 3 Sudeste 7 Sudeste 0 -- -- 98
2018-11-12 21:00:00 12.3 5 Sur 8 Sudeste 0.2 -- -- 97
2018-11-12 20:00:00 12.6 5 Sur 10 Sur 0.6 -- -- 96
2018-11-12 19:00:00 13 4 Sudoeste 8 Sudoeste 0.8 -- -- 95
2018-11-12 18:00:00 13.5 4 Oeste 9 Nordeste 0 -- -- 91
2018-11-12 17:00:00 14 6 Nordeste 10 Nordeste 0 -- -- 85
2018-11-12 16:00:00 14.6 4 Norte 9 Nordeste 0 -- -- 80
2018-11-12 15:00:00 14.8 4 Nordeste 7 Nordeste 0 -- -- 77
2018-11-12 14:00:00 14.6 2 Sudeste 7 Sudeste 0 -- -- 80
2018-11-12 13:00:00 14.3 6 Sudeste 12 Sudeste 0 -- -- 83
2018-11-12 12:00:00 13.8 9 Sudeste 12 Sudeste 0 -- -- 88
2018-11-12 11:00:00 13.2 4 Sur 12 Sudeste 0 -- -- 95
2018-11-12 10:00:00 12.1 8 Sur 13 Sudeste 0 -- -- 97
2018-11-12 09:00:00 11.4 2 Oeste 9 Sur 0 -- -- 98
2018-11-12 08:00:00 11.2 6 Sur 9 Sur 0.4 -- -- 97
2018-11-12 07:00:00 11.3 5 Sudoeste 10 Sur 0.4 -- -- 97
2018-11-12 06:00:00 11.3 4 Sudoeste 11 Oeste 0.4 -- -- 98
2018-11-12 05:00:00 11.6 5 Noroeste 16 Oeste 1.4 -- -- 98
2018-11-12 04:00:00 12.4 10 Noroeste 19 Noroeste 0.2 -- -- 98
2018-11-12 03:00:00 12.6 6 Norte 17 Nordeste 0.4 -- -- 99
2018-11-12 02:00:00 12.6 4 Nordeste 17 Nordeste 1.2 -- -- 100
2018-11-12 01:00:00 12.9 5 Norte 18 Nordeste 4.8 -- -- 99
2018-11-12 00:00:00 13 3 Sudoeste 9 Nordeste 0 -- -- 99
2018-11-11 23:00:00 12.9 5 Este 11 Nordeste 2.2 -- -- 98
2018-11-11 22:00:00 13.2 3 Noroeste 7 Oeste 1.8 -- -- 98
2018-11-11 21:00:00 13.2 2 Oeste 14 Noroeste 2.2 -- -- 98
2018-11-11 20:00:00 13.4 5 Noroeste 13 Norte 1 -- -- 97
2018-11-11 19:00:00 13.5 6 Norte 12 Norte 0.4 -- -- 96
2018-11-11 18:00:00 13.6 4 Nordeste 11 Nordeste 3.2 -- -- 95
2018-11-11 17:00:00 14.2 4 Nordeste 9 Nordeste 1.4 -- -- 93
2018-11-11 16:00:00 14.9 4 Norte 18 Noroeste 1.2 -- -- 90
2018-11-11 15:00:00 15.8 11 Noroeste 39 Oeste 0 -- -- 78
2018-11-11 14:00:00 19.1 24 Noroeste 42 Oeste 0 -- -- 60
2018-11-11 13:00:00 20.6 3 Sur 28 Sudoeste 0 -- -- 49
2018-11-11 12:00:00 21.2 15 Sudoeste 32 Sudoeste 0 -- -- 43
2018-11-11 11:00:00 20.1 9 Sudoeste 21 Sudoeste 0 -- -- 48
2018-11-11 10:00:00 18.5 8 Sudoeste 37 Sur 0 -- -- 53
2018-11-11 09:00:00 19.4 17 Sudoeste 37 Sudeste 0 -- -- 46
2018-11-11 08:00:00 19.7 19 Sudoeste 44 Sudoeste 0 -- -- 43
2018-11-11 07:00:00 19 12 Sudoeste 47 Sudoeste 0 -- -- 41
2018-11-11 06:00:00 18.8 17 Sudoeste 46 Sudoeste 0 -- -- 46
2018-11-11 05:00:00 18.1 13 Sur 36 Sur 0 -- -- 53
2018-11-11 04:00:00 17.7 13 Sudoeste 46 Sur 0 -- -- 51
2018-11-11 03:00:00 15.1 8 Sur 21 Oeste 0 -- -- 63
2018-11-11 02:00:00 10.5 5 Sur 13 Sudeste 0 -- -- 98
2018-11-11 01:00:00 8.4 2 Noroeste 7 Oeste 0 -- -- 98
2018-11-11 00:00:00 8.6 2 Oeste 8 Noroeste 0 -- -- 98
2018-11-10 23:00:00 9.4 2 Sudoeste 11 Sudeste 0 -- -- 97
2018-11-10 22:00:00 10.6 8 Sur 18 Sudeste 0 -- -- 96
2018-11-10 21:00:00 11.5 9 Sudeste 17 Sudeste 0 -- -- 96
2018-11-10 20:00:00 12.2 7 Sur 17 Sudeste 0 -- -- 95
2018-11-10 19:00:00 13.6 6 Sur 10 Sur 0 -- -- 93
2018-11-10 18:00:00 14.8 3 Sur 12 Sudeste 0.2 -- -- 93
2018-11-10 17:00:00 15.4 2 Este 11 Norte 0 -- -- 91
2018-11-10 16:00:00 15.7 8 Norte 15 Norte 0 -- -- 88
2018-11-10 15:00:00 16.2 5 Nordeste 10 Nordeste 0 -- -- 87
2018-11-10 14:00:00 15.7 2 Sudeste 15 Nordeste 0 -- -- 91
2018-11-10 13:00:00 16 6 Nordeste 22 Nordeste 0 -- -- 89
2018-11-10 12:00:00 16.7 4 Este 7 Nordeste 0 -- -- 86
2018-11-10 11:00:00 14.9 2 Sudeste 8 Norte 0 -- -- 93
2018-11-10 10:00:00 14.3 3 Sur 11 Noroeste 0.6 -- -- 92
2018-11-10 09:00:00 14.2 5 Norte 17 Norte 0 -- -- 92
2018-11-10 08:00:00 14.1 3 Norte 8 Nordeste 0 -- -- 91
2018-11-10 07:00:00 14.3 3 Norte 10 Norte 0 -- -- 89
2018-11-10 06:00:00 14.5 6 Norte 16 Norte 0 -- -- 86
2018-11-10 05:00:00 15.4 4 Norte 26 Noroeste 0 -- -- 80
2018-11-10 04:00:00 19 10 Sudoeste 28 Sudoeste 0 -- -- 52
2018-11-10 03:00:00 16.7 2 Noroeste 29 Sudeste 0 -- -- 64
2018-11-10 02:00:00 17.3 14 Sudeste 27 Sudeste 0 -- -- 59
2018-11-10 01:00:00 17.7 14 Sur 27 Sur 0 -- -- 55
2018-11-10 00:00:00 16.4 8 Sur 32 Sudeste 0 -- -- 60
2018-11-09 23:00:00 16.2 17 Sudeste 29 Sudeste 0 -- -- 62
2018-11-09 22:00:00 16.5 15 Sur 26 Sur 0 -- -- 59
2018-11-09 21:00:00 16.3 6 Sur 18 Sur 0 -- -- 60
2018-11-09 20:00:00 14.3 4 Sur 10 Sudoeste 0 -- -- 72
2018-11-09 19:00:00 14 3 Sur 9 Noroeste 0 -- -- 74
2018-11-09 18:00:00 15 3 Oeste 10 Sur 0 -- -- 69
2018-11-09 17:00:00 16.3 4 Sur 14 Sur 0 -- -- 61
2018-11-09 16:00:00 17.1 5 Sur 19 Sur 0 -- -- 51
2018-11-09 15:00:00 17.1 0 Calma 6 Sudeste 0 -- -- 46
2018-11-09 14:00:00 17 7 Sudeste 20 Sudeste 0 -- -- 47
2018-11-09 13:00:00 16.6 9 Sudeste 23 Sudeste 0 -- -- 50
2018-11-09 12:00:00 15.3 13 Sudeste 25 Sudeste 0 -- -- 59
2018-11-09 11:00:00 14.3 9 Sudeste 15 Sudeste 0 -- -- 72
2018-11-09 10:00:00 12.4 7 Sudeste 14 Sudeste 0 -- -- 82
2018-11-09 09:00:00 11 6 Sur 12 Sudoeste 0 -- -- 78
2018-11-09 08:00:00 10.5 5 Sur 13 Sur 0 -- -- 83
2018-11-09 07:00:00 11 5 Sur 10 Sudoeste 0 -- -- 83
2018-11-09 06:00:00 11.3 7 Sudoeste 17 Sudoeste 0 -- -- 84
2018-11-09 05:00:00 11.3 9 Sudoeste 28 Oeste 0 -- -- 84
2018-11-09 04:00:00 11.2 7 Sur 13 Sudoeste 0.2 -- -- 94
2018-11-09 03:00:00 11.2 4 Sur 12 Sur 1.8 -- -- 95
2018-11-09 02:00:00 11.4 5 Sur 12 Oeste 1.2 -- -- 93
2018-11-09 01:00:00 11.3 6 Sur 18 Sudoeste 5.6 -- -- 92
2018-11-09 00:00:00 12.9 9 Sur 17 Sur 1.4 -- -- 85
2018-11-08 23:00:00 13.4 4 Sudoeste 10 Noroeste 0.2 -- -- 75
2018-11-08 22:00:00 13.3 5 Sudoeste 17 Sudeste 0 -- -- 75
2018-11-08 21:00:00 13.8 5 Este 27 Sudeste 0 -- -- 72
2018-11-08 20:00:00 15.2 8 Sur 13 Sur 0 -- -- 62
2018-11-08 19:00:00 14 0 Calma 7 Oeste 0 -- -- 73
2018-11-08 18:00:00 16.1 3 Sudeste 8 Sudoeste 0 -- -- 61
2018-11-08 17:00:00 18.1 6 Sur 35 Sur 0 -- -- 49
2018-11-08 16:00:00 18.7 14 Sur 29 Sur 0 -- -- 46
2018-11-08 15:00:00 18.3 8 Sur 23 Sudeste 0 -- -- 47
2018-11-08 14:00:00 17.9 12 Sudeste 36 Sudeste 0 -- -- 57
2018-11-08 13:00:00 16.5 11 Sudeste 31 Sudeste 0 -- -- 57
2018-11-08 12:00:00 16.1 17 Sur 36 Sudeste 0 -- -- 60
2018-11-08 11:00:00 14.8 15 Sudeste 33 Sudeste 0 -- -- 59
2018-11-08 10:00:00 13.8 17 Sudeste 31 Sudeste 0 -- -- 61
2018-11-08 09:00:00 13.7 17 Sudeste 29 Sudeste 0 -- -- 60
2018-11-08 08:00:00 13 9 Sur 25 Sudeste 0 -- -- 62
2018-11-08 07:00:00 13.6 8 Sur 30 Sudeste 0 -- -- 58
2018-11-08 06:00:00 11.2 4 Sudoeste 27 Sudoeste 0 -- -- 71
2018-11-08 05:00:00 8.1 5 Noroeste 10 Sudeste 0 -- -- 87
2018-11-08 04:00:00 7.9 3 Oeste 16 Sur 0 -- -- 90
2018-11-08 03:00:00 8.1 8 Sur 22 Sudeste 0 -- -- 90
2018-11-08 02:00:00 8.1 4 Sudeste 16 Este 0 -- -- 89
2018-11-08 01:00:00 8.7 8 Sudeste 16 Sur 0 -- -- 90
2018-11-08 00:00:00 8.5 7 Sudeste 17 Sudeste 0 -- -- 91
2018-11-07 23:00:00 8.8 11 Sur 18 Sudeste 0 -- -- 92
2018-11-07 22:00:00 9.2 9 Sur 17 Sur 0 -- -- 92
2018-11-07 21:00:00 9.6 8 Sur 15 Sur 0 -- -- 90
2018-11-07 20:00:00 10.1 8 Sur 12 Sur 0 -- -- 88
2018-11-07 19:00:00 11.2 0 Calma 6 Noroeste 0 -- -- 82
2018-11-07 18:00:00 13.1 2 Sudoeste 18 Oeste 0 -- -- 70
2018-11-07 17:00:00 14.6 8 Oeste 22 Oeste 0 -- -- 62
2018-11-07 16:00:00 15 13 Noroeste 32 Oeste 0 -- -- 64
2018-11-07 15:00:00 15.7 13 Oeste 33 Oeste 0 -- -- 60
2018-11-07 14:00:00 16 18 Oeste 35 Noroeste 0 -- -- 60
2018-11-07 13:00:00 15.9 17 Noroeste 32 Oeste 0 -- -- 59
2018-11-07 12:00:00 16.6 17 Noroeste 27 Oeste 0 -- -- 63
2018-11-07 11:00:00 16.6 5 Oeste 10 Noroeste 0 -- -- 70
2018-11-07 10:00:00 14.4 5 Noroeste 8 Noroeste 0 -- -- 82
2018-11-07 09:00:00 13.8 4 Nordeste 14 Norte 0 -- -- 80
2018-11-07 08:00:00 14.4 4 Norte 13 Oeste 0 -- -- 84
2018-11-07 07:00:00 16.3 7 Oeste 17 Oeste 0 -- -- 63
2018-11-07 06:00:00 17.7 11 Oeste 31 Sur 0 -- -- 55
2018-11-07 05:00:00 17.1 6 Sur 20 Sudoeste 0 -- -- 60
2018-11-07 04:00:00 17.4 8 Sudoeste 35 Sur 0 -- -- 58
2018-11-07 03:00:00 17.7 14 Sur 35 Sur 0 -- -- 57
2018-11-07 02:00:00 17.7 18 Sur 48 Sudeste 0 -- -- 57
2018-11-07 01:00:00 17.1 18 Sur 44 Sudeste 0 -- -- 59
2018-11-07 00:00:00 16.9 17 Sur 33 Sur 0 -- -- 62
2018-11-06 23:00:00 16.5 13 Sur 27 Sur 0.2 -- -- 64
2018-11-06 22:00:00 15.9 12 Sur 30 Sudeste 0.2 -- -- 70
2018-11-06 21:00:00 16.3 13 Sur 36 Sudeste 0 -- -- 65
2018-11-06 20:00:00 16.1 16 Sudeste 24 Sudeste 0 -- -- 63
2018-11-06 19:00:00 15.8 10 Sur 31 Sudeste 0 -- -- 64
2018-11-06 18:00:00 15.7 14 Sudeste 27 Sudeste 0 -- -- 63
2018-11-06 17:00:00 15.6 15 Sudeste 28 Sudeste 0 -- -- 64
2018-11-06 16:00:00 14.6 10 Sudeste 28 Sudeste 0 -- -- 71
2018-11-06 15:00:00 14.3 6 Este 11 Este 0.4 -- -- 78
2018-11-06 14:00:00 16 3 Sur 11 Sudoeste 0 -- -- 64
2018-11-06 13:00:00 15.6 8 Sudeste 26 Sur 0 -- -- 60
2018-11-06 12:00:00 15.7 12 Sudeste 23 Este 0 -- -- 62
2018-11-06 11:00:00 14.4 6 Sur 15 Sur 0 -- -- 68
2018-11-06 10:00:00 13.4 9 Sur 15 Sur 0 -- -- 71
2018-11-06 09:00:00 11.1 6 Sur 14 Sur 0 -- -- 77
2018-11-06 08:00:00 10.9 6 Sur 22 Sur 0 -- -- 80
2018-11-06 07:00:00 10.7 10 Sudoeste 22 Sudoeste 0.4 -- -- 85
2018-11-06 06:00:00 10.4 9 Sudoeste 31 Sudoeste 1.4 -- -- 90
2018-11-06 05:00:00 10.3 15 Oeste 36 Sudoeste 2.2 -- -- 92
2018-11-06 04:00:00 10.3 17 Oeste 46 Oeste 1 -- -- 91
2018-11-06 03:00:00 10.5 17 Oeste 42 Oeste 0.6 -- -- 89
2018-11-06 02:00:00 10.1 15 Oeste 34 Oeste 1 -- -- 94
2018-11-06 01:00:00 9.4 9 Sur 18 Sudeste 3 -- -- 97
2018-11-06 00:00:00 9.5 2 Sudeste 15 Sudeste 3.2 -- -- 97
2018-11-05 23:00:00 9.3 8 Sur 15 Sudeste 2.8 -- -- 98
2018-11-05 22:00:00 9 5 Sur 12 Sudeste 0 -- -- 96
2018-11-05 21:00:00 9.7 4 Sudoeste 12 Sur 0 -- -- 98
2018-11-05 20:00:00 9.2 2 Sur 6 Sur 0 -- -- 95
2018-11-05 19:00:00 10.8 2 Sudoeste 9 Sudeste 0 -- -- 92
2018-11-05 18:00:00 12.7 0 Calma 10 Noroeste 0 -- -- 86
2018-11-05 17:00:00 14.5 8 Noroeste 16 Norte 0 -- -- 80
2018-11-05 16:00:00 15.5 10 Norte 23 Norte 0 -- -- 77
2018-11-05 15:00:00 16.5 8 Norte 14 Norte 0 -- -- 65
2018-11-05 14:00:00 14.8 5 Sur 16 Sudeste 0 -- -- 71
2018-11-05 13:00:00 14.5 7 Sudeste 17 Sur 0 -- -- 69
2018-11-05 12:00:00 14.6 7 Sur 19 Sur 0 -- -- 70
2018-11-05 11:00:00 14.5 6 Sur 22 Sur 0 -- -- 68
2018-11-05 10:00:00 13 3 Sudeste 14 Sur 0 -- -- 87
2018-11-05 09:00:00 11.9 3 Noroeste 11 Noroeste 0.2 -- -- 95
2018-11-05 08:00:00 12.2 2 Noroeste 12 Noroeste 0.6 -- -- 92
2018-11-05 07:00:00 12.8 4 Sudeste 8 Este 0 -- -- 88
2018-11-05 06:00:00 14.6 3 Sudoeste 23 Sur 0 -- -- 75
2018-11-05 05:00:00 16.3 9 Sudeste 42 Sudeste 0 -- -- 61
2018-11-05 04:00:00 16.5 22 Sudeste 38 Sudeste 0 -- -- 61
2018-11-05 03:00:00 16.7 14 Sudeste 36 Sur 0 -- -- 59
2018-11-05 02:00:00 16.6 12 Sur 30 Sudeste 0 -- -- 60
2018-11-05 01:00:00 16.5 21 Sur 36 Sudeste 0 -- -- 59
2018-11-05 00:00:00 15.6 14 Sudeste 27 Sudeste 0 -- -- 62
2018-11-04 23:00:00 14.9 6 Sudeste 19 Sur 0 -- -- 69
2018-11-04 22:00:00 12.7 3 Sur 10 Sudoeste 0 -- -- 92
2018-11-04 21:00:00 13.1 4 Norte 12 Noroeste 0 -- -- 92
2018-11-04 20:00:00 12.7 3 Sudoeste 13 Norte 0 -- -- 93
2018-11-04 19:00:00 12.8 4 Norte 9 Sudeste 0 -- -- 94
2018-11-04 18:00:00 12.7 0 Calma 5 Este 0 -- -- 86
2018-11-04 17:00:00 14.1 0 Calma 7 Nordeste 0 -- -- 79
2018-11-04 16:00:00 14.7 2 Este 7 Nordeste 0 -- -- 73
2018-11-04 15:00:00 14.4 0 Calma 6 Nordeste 0 -- -- 75
2018-11-04 14:00:00 13.5 3 Nordeste 9 Nordeste 0 -- -- 76
2018-11-04 13:00:00 13 6 Nordeste 12 Sudeste 0 -- -- 79
2018-11-04 12:00:00 12.7 6 Sudeste 15 Sudeste 0 -- -- 78
2018-11-04 11:00:00 10.8 8 Sudeste 21 Sudeste 0 -- -- 86
2018-11-04 10:00:00 8.6 11 Sur 22 Sudeste 0 -- -- 91
2018-11-04 09:00:00 6.1 12 Sur 23 Sudeste 0 -- -- 96
2018-11-04 08:00:00 4.9 6 Sur 14 Sur 0 -- -- 97
2018-11-04 07:00:00 5.6 10 Sur 28 Sudeste 0 -- -- 94
2018-11-04 06:00:00 5.3 16 Sudeste 28 Sudeste 0 -- -- 97
2018-11-04 05:00:00 5.7 12 Sur 24 Sudeste 0 -- -- 98
2018-11-04 04:00:00 5.3 12 Sur 23 Sudeste 0 -- -- 99
2018-11-04 03:00:00 5.3 6 Sur 17 Sudeste 0 -- -- 100
2018-11-04 02:00:00 5.3 6 Sur 13 Sur 0 -- -- 99
2018-11-04 01:00:00 5.7 6 Sur 14 Sur 0 -- -- 99
2018-11-04 00:00:00 6.1 5 Sur 12 Sur 0 -- -- 99
2018-11-03 23:00:00 6.5 5 Sur 17 Sur 0 -- -- 97
2018-11-03 22:00:00 7 7 Sur 10 Sur 0 -- -- 98
2018-11-03 21:00:00 7.5 5 Sur 12 Sur 0 -- -- 96
2018-11-03 20:00:00 8.5 4 Sur 8 Sudeste 0 -- -- 94
2018-11-03 19:00:00 10.3 4 Noroeste 6 Noroeste 0 -- -- 86
2018-11-03 18:00:00 12.3 5 Nordeste 19 Nordeste 0 -- -- 80
2018-11-03 17:00:00 13.6 12 Nordeste 23 Nordeste 0 -- -- 75
2018-11-03 16:00:00 13.8 17 Nordeste 25 Nordeste 0 -- -- 75
2018-11-03 15:00:00 13.9 17 Nordeste 24 Nordeste 0 -- -- 78
2018-11-03 14:00:00 14.4 12 Nordeste 24 Nordeste 0 -- -- 76
2018-11-03 13:00:00 14 15 Nordeste 20 Nordeste 0 -- -- 75
2018-11-03 12:00:00 13.8 4 Nordeste 10 Sudeste 0 -- -- 79
2018-11-03 11:00:00 11.5 6 Sudeste 13 Sudeste 0 -- -- 89
2018-11-03 10:00:00 9.2 6 Sur 22 Sur 0 -- -- 99
2018-11-03 09:00:00 6.8 10 Sur 21 Sudeste 0 -- -- 100
2018-11-03 08:00:00 6.3 12 Sudeste 19 Sudeste 0 -- -- 100
2018-11-03 07:00:00 6.6 10 Sur 18 Sur 0 -- -- 100
2018-11-03 06:00:00 6.5 10 Sur 17 Sur 0 -- -- 100
2018-11-03 05:00:00 6.3 5 Sur 22 Sudeste 0 -- -- 100
2018-11-03 04:00:00 7.5 13 Sur 21 Sudeste 0 -- -- 100
2018-11-03 03:00:00 7.4 9 Sur 17 Sudeste 0 -- -- 100
2018-11-03 02:00:00 7.7 7 Sur 13 Sur 0 -- -- 99
2018-11-03 01:00:00 8.5 3 Sur 10 Sur 0 -- -- 99
2018-11-03 00:00:00 8.3 3 Sur 9 Sur 0 -- -- 99
2018-11-02 23:00:00 9.1 5 Sur 10 Sur 0 -- -- 99
2018-11-02 22:00:00 9.8 0 Calma 9 Sur 0 -- -- 98
2018-11-02 21:00:00 10.2 3 Sudeste 9 Sur 0 -- -- 98
2018-11-02 20:00:00 10.2 4 Sur 8 Sur 0 -- -- 96
2018-11-02 19:00:00 11 0 Calma 4 Noroeste 0 -- -- 93
2018-11-02 18:00:00 13.3 0 Calma 9 Nordeste 0 -- -- 86
2018-11-02 17:00:00 14.3 7 Nordeste 15 Nordeste 0 -- -- 81
2018-11-02 16:00:00 14.9 10 Nordeste 16 Nordeste 0 -- -- 80
2018-11-02 15:00:00 14.7 6 Nordeste 14 Nordeste 0 -- -- 80
2018-11-02 14:00:00 14.6 7 Nordeste 14 Nordeste 0 -- -- 90
2018-11-02 13:00:00 14.8 4 Norte 9 Norte 0 -- -- 92
2018-11-02 12:00:00 14.4 4 Norte 9 Noroeste 0 -- -- 98
2018-11-02 11:00:00 12.7 2 Este 12 Sur 0.2 -- -- 99
2018-11-02 10:00:00 12.4 9 Sur 13 Sur 0 -- -- 100
2018-11-02 09:00:00 11.8 4 Sudoeste 6 Sudoeste 0 -- -- 100
2018-11-02 08:00:00 11.4 0 Calma 8 Sudoeste 0 -- -- 100
2018-11-02 07:00:00 11.3 2 Sur 8 Sudoeste 0 -- -- 100
2018-11-02 06:00:00 11.2 3 Sur 11 Sur 0.6 -- -- 100
2018-11-02 05:00:00 11.1 6 Sur 11 Sudeste 2.4 -- -- 100
2018-11-02 04:00:00 10.9 4 Sur 12 Sudeste 5.2 -- -- 99
2018-11-02 03:00:00 10.8 4 Sur 9 Sudeste 5.2 -- -- 99
2018-11-02 02:00:00 10.8 6 Sudeste 11 Sudeste 5.4 -- -- 99
2018-11-02 01:00:00 10.9 3 Sudeste 12 Sudeste 3.2 -- -- 98
2018-11-02 00:00:00 11 4 Sudeste 10 Sudeste 0.6 -- -- 97
2018-11-01 23:00:00 11.2 4 Sur 10 Sudeste 0.2 -- -- 96
2018-11-01 22:00:00 11.4 5 Sur 10 Sudeste 0 -- -- 95
2018-11-01 21:00:00 11.5 2 Sur 6 Noroeste 0 -- -- 93
2018-11-01 20:00:00 12.1 2 Noroeste 7 Sudeste 0 -- -- 90
2018-11-01 19:00:00 12.6 2 Sur 5 Sudeste 0 -- -- 88
2018-11-01 18:00:00 13.5 0 Calma 6 Sudeste 0.2 -- -- 82
2018-11-01 17:00:00 14.5 3 Sudoeste 6 Sudoeste 0 -- -- 73
2018-11-01 16:00:00 15.1 2 Oeste 9 Noroeste 0 -- -- 67
2018-11-01 15:00:00 15.4 4 Oeste 13 Noroeste 0 -- -- 67
2018-11-01 14:00:00 15.5 5 Oeste 17 Oeste 0 -- -- 63
2018-11-01 13:00:00 15.5 8 Sudoeste 23 Oeste 0 -- -- 64
2018-11-01 12:00:00 14.5 5 Oeste 11 Oeste 0 -- -- 69
2018-11-01 11:00:00 13 6 Nordeste 19 Norte 0 -- -- 78
2018-11-01 10:00:00 12.2 4 Sudoeste 10 Sur 0 -- -- 82
2018-11-01 09:00:00 11.5 6 Sudoeste 24 Oeste 0 -- -- 85
2018-11-01 08:00:00 12.1 9 Oeste 29 Sudoeste 0 -- -- 76
2018-11-01 07:00:00 12 8 Oeste 17 Sudoeste 0 -- -- 76
2018-11-01 06:00:00 11.6 6 Sudoeste 20 Oeste 0 -- -- 77
2018-11-01 05:00:00 11.8 6 Oeste 17 Oeste 0 -- -- 76
2018-11-01 04:00:00 12.1 10 Oeste 26 Oeste 0 -- -- 74
2018-11-01 03:00:00 11.8 8 Oeste 24 Oeste 0 -- -- 74
2018-11-01 02:00:00 11.4 9 Oeste 27 Oeste 0 -- -- 77
2018-11-01 01:00:00 11.6 12 Oeste 28 Oeste 0 -- -- 82
2018-11-01 00:00:00 10.6 3 Sur 8 Sur 1.8 -- -- 96
2018-10-31 23:00:00 10.9 6 Sudoeste 15 Oeste 5.8 -- -- 95
2018-10-31 22:00:00 11 4 Sudoeste 17 Sudoeste 5 -- -- 94
2018-10-31 21:00:00 11.2 6 Sudoeste 19 Oeste 3.6 -- -- 93
2018-10-31 20:00:00 11.8 8 Oeste 32 Oeste 0.2 -- -- 91
2018-10-31 19:00:00 12.4 6 Sudoeste 20 Oeste 0.8 -- -- 91
2018-10-31 18:00:00 13.1 6 Noroeste 14 Sudoeste 0.4 -- -- 82
2018-10-31 17:00:00 13.6 6 Oeste 13 Oeste 0 -- -- 78
2018-10-31 16:00:00 14.1 6 Oeste 16 Oeste 0 -- -- 71
2018-10-31 15:00:00 14.3 5 Oeste 12 Oeste 0 -- -- 74
2018-10-31 14:00:00 14.1 7 Oeste 15 Noroeste 0 -- -- 70
2018-10-31 13:00:00 13.3 4 Noroeste 8 Norte 0 -- -- 76
2018-10-31 12:00:00 12.6 0 Calma 5 Sur 0 -- -- 86
2018-10-31 11:00:00 11 0 Calma 8 Sur 0 -- -- 92
2018-10-31 10:00:00 9.4 3 Sur 12 Sur 0 -- -- 95
2018-10-31 09:00:00 8.5 4 Sur 11 Sur 0 -- -- 97
2018-10-31 08:00:00 8.3 5 Sur 10 Sudeste 0 -- -- 97
2018-10-31 07:00:00 7.7 3 Sur 10 Sudeste 0 -- -- 97
2018-10-31 06:00:00 7.2 2 Sur 8 Sur 0 -- -- 96
2018-10-31 05:00:00 8.1 6 Sur 10 Sur 0 -- -- 95
2018-10-31 04:00:00 8.9 6 Sur 13 Sudeste 0 -- -- 93
2018-10-31 03:00:00 8.2 3 Sur 10 Sur 0 -- -- 96
2018-10-31 02:00:00 7.8 4 Sur 9 Sur 0 -- -- 96
2018-10-31 01:00:00 8.8 4 Noroeste 10 Sur 0 -- -- 90
2018-10-31 00:00:00 9.9 5 Sur 14 Sur 0 -- -- 86
2018-10-30 23:00:00 10.4 5 Sudeste 15 Sur 0 -- -- 84
2018-10-30 22:00:00 10.6 8 Sur 26 Sur 0.6 -- -- 84
2018-10-30 21:00:00 12 10 Sur 26 Sudeste 0 -- -- 71
2018-10-30 20:00:00 12 15 Sudeste 27 Sudeste 0 -- -- 71
2018-10-30 19:00:00 12.2 8 Sudeste 17 Sudeste 0 -- -- 71
2018-10-30 18:00:00 12.8 9 Sur 15 Sudeste 0 -- -- 69
2018-10-30 17:00:00 13.8 9 Sudeste 16 Sudeste 0 -- -- 64
2018-10-30 16:00:00 14.6 9 Sudeste 18 Sur 0 -- -- 62
2018-10-30 15:00:00 14.3 11 Sudeste 21 Sudeste 0 -- -- 64
2018-10-30 14:00:00 14.5 11 Sudeste 21 Sudeste 0 -- -- 63
2018-10-30 13:00:00 15.4 9 Sur 21 Sudeste 0 -- -- 56
2018-10-30 12:00:00 15 7 Sudeste 15 Sudeste 0 -- -- 57
2018-10-30 11:00:00 13.6 3 Este 10 Oeste 0 -- -- 61
2018-10-30 10:00:00 8.4 5 Noroeste 14 Noroeste 0 -- -- 98
2018-10-30 09:00:00 5.5 4 Noroeste 8 Noroeste 0 -- -- 99
2018-10-30 08:00:00 4.3 0 Calma 8 Sur 0 -- -- 99
2018-10-30 07:00:00 3.8 2 Oeste 10 Sur 0 -- -- 99
2018-10-30 06:00:00 3.9 5 Sudoeste 13 Sur 0 -- -- 99
2018-10-30 05:00:00 4.1 7 Sur 12 Sur 0 -- -- 97
2018-10-30 04:00:00 4.9 8 Sur 18 Sur 0 -- -- 96
2018-10-30 03:00:00 5.2 9 Sur 20 Sudeste -- -- -- 96
2018-10-30 02:00:00 5.5 11 Sudeste 19 Sudeste 0 -- -- 96
2018-10-30 01:00:00 5.7 11 Sur 18 Sudeste 0 -- -- 96
2018-10-30 00:00:00 6.2 10 Sur 17 Sudeste 0 -- -- 96
2018-10-29 23:00:00 6.6 3 Sur 15 Sudeste 0 -- -- 95
2018-10-29 22:00:00 6.8 9 Sur 15 Sur 0.2 -- -- 94
2018-10-29 21:00:00 6.8 8 Sur 19 Sudoeste 1 -- -- 93
2018-10-29 20:00:00 7.1 9 Oeste 22 Noroeste 1.2 -- -- 87
2018-10-29 19:00:00 7.6 8 Sudoeste 24 Sudoeste 0.4 -- -- 85
2018-10-29 18:00:00 7.3 8 Sudoeste 27 Oeste 1 -- -- 88
2018-10-29 17:00:00 7.5 8 Oeste 33 Oeste 2.8 -- -- 86
2018-10-29 16:00:00 10.3 15 Oeste 34 Noroeste 0 -- -- 74
2018-10-29 15:00:00 12.2 20 Noroeste 36 Norte 0 -- -- 49
2018-10-29 14:00:00 12.8 19 Noroeste 48 Noroeste 0 -- -- 52
2018-10-29 13:00:00 12.7 21 Noroeste 42 Noroeste 0 -- -- 56
2018-10-29 12:00:00 11.8 23 Noroeste 41 Noroeste 0 -- -- 66
2018-10-29 11:00:00 8.8 9 Noroeste 43 Noroeste 1 -- -- 86
2018-10-29 10:00:00 9.2 10 Oeste 36 Norte 0.4 -- -- 85
2018-10-29 09:00:00 9.1 17 Norte 48 Norte 0.4 -- -- 82
2018-10-29 08:00:00 8.4 15 Noroeste 52 Norte 2 -- -- 86
2018-10-29 07:00:00 8.2 23 Norte 60 Noroeste 1.4 -- -- 87
2018-10-29 06:00:00 8.9 19 Noroeste 51 Noroeste 1.2 -- -- 83
2018-10-29 05:00:00 8.7 17 Noroeste 43 Oeste 0.2 -- -- 87
2018-10-29 04:00:00 8.6 14 Noroeste 42 Noroeste 1.4 -- -- 89
2018-10-29 03:00:00 8.9 11 Noroeste 31 Noroeste 1.6 -- -- 89
2018-10-29 02:00:00 8.4 13 Noroeste 31 Norte 1.4 -- -- 90
2018-10-29 01:00:00 8.1 13 Noroeste 29 Noroeste 3.8 -- -- 92
2018-10-29 00:00:00 7.2 10 Oeste 23 Oeste 3.2 -- -- 96
2018-10-28 23:00:00 7 6 Oeste 29 Oeste 3.6 -- -- 95
2018-10-28 22:00:00 6.4 18 Oeste 35 Noroeste 3.8 -- -- 92
2018-10-28 21:00:00 6.5 15 Oeste 33 Oeste 1 -- -- 92
2018-10-28 20:00:00 6.5 7 Sudoeste 20 Sudoeste 1.2 -- -- 90
2018-10-28 19:00:00 5.9 6 Sur 17 Sudeste 1 -- -- 92
2018-10-28 18:00:00 6 5 Sudoeste 32 Oeste 2.2 -- -- 91
2018-10-28 17:00:00 6.7 12 Oeste 35 Oeste 0.8 -- -- 90
2018-10-28 16:00:00 7.2 11 Sudoeste 33 Oeste 2.8 -- -- 92
2018-10-28 15:00:00 6.9 14 Oeste 33 Oeste 0.4 -- -- 90
2018-10-28 14:00:00 7.6 18 Oeste 31 Oeste 1.2 -- -- 90
2018-10-28 13:00:00 8.4 6 Noroeste 18 Noroeste 1.4 -- -- 88
2018-10-28 12:00:00 10 8 Oeste 15 Sudoeste 0 -- -- 82
2018-10-28 11:00:00 7.8 12 Oeste 20 Oeste 0 -- -- 94
2018-10-28 10:00:00 6.5 2 Sur 17 Sudeste 0.6 -- -- 96
2018-10-28 09:00:00 5.7 8 Sur 16 Sudeste 0 -- -- 96
2018-10-28 08:00:00 5.4 12 Sudeste 18 Sudeste 0 -- -- 96
2018-10-28 07:00:00 5.3 12 Sur 22 Sur 1.4 -- -- 95
2018-10-28 06:00:00 5.7 4 Oeste 15 Sudoeste 0.4 -- -- 95
2018-10-28 05:00:00 6.2 9 Sur 13 Sur 1.8 -- -- 96
2018-10-28 04:00:00 6.3 5 Sudoeste 12 Oeste 2 -- -- 95
2018-10-28 03:00:00 6.7 3 Nordeste 8 Sudoeste 0.8 -- -- 93
2018-10-28 02:00:00 6.6 4 Oeste 11 Oeste 0.2 -- -- 93
2018-10-28 01:00:00 6.5 4 Sur 11 Sudeste 0 -- -- 93
2018-10-28 00:00:00 5.9 4 Sudeste 13 Sudeste 0 -- -- 97
2018-10-27 23:00:00 6 8 Sur 14 Sur 0 -- -- 95
2018-10-27 22:00:00 6.8 7 Sur 15 Sudeste 0.4 -- -- 93
2018-10-27 21:00:00 6.8 6 Sur 18 Sudoeste 0 -- -- 93
2018-10-27 20:00:00 6.8 10 Sudoeste 24 Sudoeste 0.6 -- -- 92
2018-10-27 19:00:00 7 9 Sudoeste 21 Sudoeste 1.6 -- -- 91
2018-10-27 18:00:00 7.5 10 Oeste 28 Oeste 2 -- -- 94
2018-10-27 17:00:00 8 7 Sudoeste 31 Oeste 4.2 -- -- 93
2018-10-27 16:00:00 9 9 Oeste 23 Oeste 4.4 -- -- 90
2018-10-27 15:00:00 11.1 12 Sudoeste 25 Sudoeste 0.4 -- -- 84
2018-10-27 14:00:00 8.9 7 Sudoeste 15 Sudoeste 2 -- -- 94
2018-10-27 13:00:00 9.2 8 Oeste 15 Oeste 2.4 -- -- 89
2018-10-27 12:00:00 10.2 5 Nordeste 14 Oeste 0.2 -- -- 82
2018-10-27 11:00:00 9.8 9 Oeste 32 Oeste 0 -- -- 88
2018-10-27 10:00:00 9.1 7 Sudeste 18 Sudoeste 0 -- -- 91
2018-10-27 09:00:00 9.2 3 Sudoeste 12 Oeste 0 -- -- 93
2018-10-27 08:00:00 9.6 9 Oeste 18 Oeste 0.2 -- -- 91
2018-10-27 07:00:00 10.1 4 Noroeste 19 Oeste 0.2 -- -- 91
2018-10-27 06:00:00 10 5 Sudoeste 16 Sudoeste 0.6 -- -- 93
2018-10-27 05:00:00 10.2 7 Oeste 15 Oeste 2.2 -- -- 94
2018-10-27 04:00:00 11 8 Oeste 25 Noroeste 1.8 -- -- 92
2018-10-27 03:00:00 12 8 Noroeste 30 Norte 0.8 -- -- 87
2018-10-27 02:00:00 12.6 13 Norte 25 Nordeste 8.6 -- -- 95
2018-10-27 01:00:00 13 8 Oeste 17 Oeste 0.8 -- -- 93
2018-10-27 00:00:00 13.7 6 Oeste 12 Oeste 0 -- -- 88
2018-10-26 23:00:00 14.4 5 Oeste 15 Norte 0 -- -- 83
2018-10-26 22:00:00 15.1 10 Norte 20 Noroeste 0 -- -- 81
2018-10-26 21:00:00 15 9 Noroeste 19 Noroeste 0 -- -- 86
2018-10-26 20:00:00 15.3 5 Noroeste 12 Noroeste 0 -- -- 92
2018-10-26 19:00:00 16 7 Noroeste 18 Oeste 0.6 -- -- 91
2018-10-26 18:00:00 16.5 9 Oeste 19 Oeste 0 -- -- 88
2018-10-26 17:00:00 16.4 5 Oeste 13 Oeste 0 -- -- 90
2018-10-26 16:00:00 15.7 5 Oeste 14 Oeste 0 -- -- 91
2018-10-26 15:00:00 15.7 6 Oeste 15 Oeste 0 -- -- 90
2018-10-26 14:00:00 15.5 5 Noroeste 13 Oeste 0 -- -- 92
2018-10-26 13:00:00 15.5 2 Este 9 Sudeste 0 -- -- 89
2018-10-26 12:00:00 14.7 7 Sudeste 13 Sudeste 0 -- -- 91
2018-10-26 11:00:00 14.4 6 Sudeste 13 Sudeste 0 -- -- 93
2018-10-26 10:00:00 14 9 Sudeste 15 Sudeste 0 -- -- 94
2018-10-26 09:00:00 13.8 6 Sur 10 Sudeste 0 -- -- 96
2018-10-26 08:00:00 13.7 6 Sur 10 Sur 0 -- -- 96
2018-10-26 07:00:00 13.7 4 Sur 10 Sudeste 0 -- -- 97
2018-10-26 06:00:00 13.6 5 Sur 10 Sur 0 -- -- 97
2018-10-26 05:00:00 13.5 5 Sudeste 10 Sudeste 0 -- -- 98
2018-10-26 04:00:00 13.4 4 Sur 13 Sudeste 0 -- -- 98
2018-10-26 03:00:00 13.1 6 Sur 12 Sudeste 0 -- -- 98
2018-10-26 02:00:00 12.9 5 Sur 10 Sur 0 -- -- 98
2018-10-26 01:00:00 12.7 2 Sur 10 Sur 0 -- -- 99
2018-10-26 00:00:00 12.1 4 Sur 7 Sudeste 0 -- -- 99
2018-10-25 23:00:00 10.6 0 Calma 4 Oeste 0 -- -- 98
2018-10-25 22:00:00 11.5 2 Sur 6 Sur 0 -- -- 96
2018-10-25 21:00:00 12.1 0 Calma 4 Oeste 0 -- -- 94
2018-10-25 20:00:00 13.8 3 Noroeste 5 Noroeste 0 -- -- 91
2018-10-25 19:00:00 16.1 2 Norte 10 Nordeste 0 -- -- 87
2018-10-25 18:00:00 17.3 5 Nordeste 13 Nordeste 0 -- -- 83
2018-10-25 17:00:00 17.8 6 Nordeste 17 Nordeste 0 -- -- 82
2018-10-25 16:00:00 17.8 9 Nordeste 19 Nordeste 0 -- -- 81
2018-10-25 15:00:00 18.3 9 Nordeste 14 Nordeste 0 -- -- 74
2018-10-25 14:00:00 18.5 6 Nordeste 13 Norte 0 -- -- 69
2018-10-25 13:00:00 17.7 4 Este 7 Este 0 -- -- 67
2018-10-25 12:00:00 15.3 4 Sur 10 Sudeste 0 -- -- 79
2018-10-25 11:00:00 11.9 9 Sudeste 12 Sudeste 0 -- -- 92
2018-10-25 10:00:00 8.7 6 Sur 11 Sudeste 0 -- -- 99
2018-10-25 09:00:00 7.3 6 Sur 12 Sur 0 -- -- 99
2018-10-25 08:00:00 7.4 5 Sur 13 Sur 0 -- -- 98
2018-10-25 07:00:00 7.8 8 Sur 13 Sudeste 0 -- -- 99
2018-10-25 06:00:00 7.9 7 Sur 12 Sur 0 -- -- 98
2018-10-25 05:00:00 8.3 8 Sur 11 Sur 0 -- -- 98
2018-10-25 04:00:00 8.6 6 Sur 15 Sur 0 -- -- 98
2018-10-25 03:00:00 8.8 6 Sur 12 Sur 0 -- -- 98
2018-10-25 02:00:00 9.6 8 Sur 13 Sur 0 -- -- 97
2018-10-25 01:00:00 10.1 5 Sur 19 Sudeste 0 -- -- 97
2018-10-25 00:00:00 10.4 6 Sur 14 Sur 0 -- -- 98
2018-10-24 23:00:00 11 7 Sur 10 Sur 0 -- -- 97
2018-10-24 22:00:00 11.6 4 Sur 9 Sur 0 -- -- 96
2018-10-24 21:00:00 12.2 2 Sudoeste 9 Sudoeste 0 -- -- 93
2018-10-24 20:00:00 13.6 0 Calma 8 Este 0 -- -- 88
2018-10-24 19:00:00 15.7 6 Nordeste 13 Nordeste 0 -- -- 85
2018-10-24 18:00:00 16.5 7 Nordeste 13 Nordeste 0 -- -- 81
2018-10-24 17:00:00 17.3 7 Nordeste 14 Nordeste 0 -- -- 77
2018-10-24 16:00:00 17.8 8 Nordeste 17 Nordeste 0 -- -- 74
2018-10-24 15:00:00 17.7 12 Nordeste 17 Nordeste 0 -- -- 75
2018-10-24 14:00:00 17.9 6 Nordeste 10 Nordeste 0 -- -- 72
2018-10-24 13:00:00 17.2 4 Este 8 Este 0 -- -- 74
2018-10-24 12:00:00 15.1 5 Sudeste 17 Sudeste 0 -- -- 84
2018-10-24 11:00:00 12.1 13 Sudeste 21 Sudeste 0 -- -- 91
2018-10-24 10:00:00 9.6 9 Sur 19 Sudeste 0 -- -- 99
2018-10-24 09:00:00 8.2 7 Sur 13 Sur 0 -- -- 98
2018-10-24 08:00:00 8.8 5 Sur 15 Sur 0 -- -- 98
2018-10-24 07:00:00 8.9 8 Sur 13 Sudoeste 0 -- -- 98
2018-10-24 06:00:00 9.9 7 Sur 13 Sur 0 -- -- 98
2018-10-24 05:00:00 10.1 8 Sur 14 Sur 0 -- -- 96
2018-10-24 04:00:00 10.8 6 Sur 10 Sur 0 -- -- 98
2018-10-24 03:00:00 11.2 6 Sur 10 Sur 0 -- -- 97
2018-10-24 02:00:00 12.2 3 Sur 6 Sur 0 -- -- 97
2018-10-24 01:00:00 12.4 2 Norte 6 Sudeste 0 -- -- 98
2018-10-24 00:00:00 12.1 2 Noroeste 4 Noroeste 0 -- -- 97
2018-10-23 23:00:00 12.2 0 Calma 4 Noroeste 0 -- -- 95
2018-10-23 22:00:00 12.6 2 Sur 7 Sudeste 0 -- -- 95
2018-10-23 21:00:00 12.2 0 Calma 5 Oeste 0 -- -- 92
2018-10-23 20:00:00 14 3 Oeste 9 Nordeste 0 -- -- 88
2018-10-23 19:00:00 15.8 5 Nordeste 10 Nordeste 0 -- -- 81
2018-10-23 18:00:00 16.7 7 Nordeste 17 Nordeste 0 -- -- 78
2018-10-23 17:00:00 17.3 9 Nordeste 20 Nordeste 0 -- -- 76
2018-10-23 16:00:00 17.7 11 Nordeste 21 Nordeste 0 -- -- 75
2018-10-23 15:00:00 17.4 15 Nordeste 22 Este 0 -- -- 78
2018-10-23 14:00:00 17.6 13 Nordeste 21 Nordeste 0 -- -- 77
2018-10-23 13:00:00 17.4 8 Nordeste 15 Este 0 -- -- 80
2018-10-23 12:00:00 15.5 2 Sur 8 Sudeste 0 -- -- 90
2018-10-23 11:00:00 14.3 4 Sudeste 12 Sudeste 0 -- -- 93
2018-10-23 10:00:00 13.3 4 Sudeste 10 Sudeste 0 -- -- 96
2018-10-23 09:00:00 13 5 Sudeste 11 Sudeste 0 -- -- 96
2018-10-23 08:00:00 12.8 5 Sur 9 Sudeste 0 -- -- 96
2018-10-23 07:00:00 12.9 4 Sur 8 Sudeste 0 -- -- 95
2018-10-23 06:00:00 12.7 5 Sudeste 12 Sudeste 0 -- -- 96
2018-10-23 05:00:00 12.6 6 Sudeste 11 Sudeste 0 -- -- 95
2018-10-23 04:00:00 13 5 Sudeste 10 Sudeste 0 -- -- 94
2018-10-23 03:00:00 13.3 5 Sur 13 Sudeste 0 -- -- 94
2018-10-23 02:00:00 13 5 Sur 9 Sudeste 0 -- -- 96
2018-10-23 01:00:00 12.7 6 Sudeste 9 Sudeste 0 -- -- 97
2018-10-23 00:00:00 12.6 4 Sur 10 Sur 0 -- -- 96
2018-10-22 23:00:00 12.9 6 Sur 9 Sur 0 -- -- 95
2018-10-22 22:00:00 13 2 Sur 6 Noroeste 0 -- -- 92
2018-10-22 21:00:00 14 5 Noroeste 7 Noroeste 0 -- -- 91
2018-10-22 20:00:00 15.4 3 Oeste 12 Norte 0 -- -- 84
2018-10-22 19:00:00 17.4 7 Norte 14 Nordeste 0 -- -- 77
2018-10-22 18:00:00 18.2 8 Noroeste 15 Norte 0 -- -- 66
2018-10-22 17:00:00 18.3 8 Norte 19 Nordeste 0 -- -- 70
2018-10-22 16:00:00 18.4 10 Norte 17 Norte 0 -- -- 71
2018-10-22 15:00:00 18.9 11 Norte 19 Norte 0 -- -- 73
2018-10-22 14:00:00 19.1 10 Norte 22 Norte 0 -- -- 73
2018-10-22 13:00:00 18.9 10 Norte 21 Norte 0 -- -- 75
2018-10-22 12:00:00 18.3 9 Noroeste 19 Noroeste 0 -- -- 86
2018-10-22 11:00:00 16.3 4 Oeste 13 Oeste 0 -- -- 94
2018-10-22 10:00:00 14.4 2 Sur 4 Oeste 0 -- -- 98
2018-10-22 09:00:00 14.5 3 Sur 12 Oeste 0 -- -- 95
2018-10-22 08:00:00 15.3 3 Sudoeste 12 Oeste 0 -- -- 96
2018-10-22 07:00:00 15 5 Oeste 10 Oeste 0 -- -- 97
2018-10-22 06:00:00 15.5 4 Noroeste 10 Oeste 0 -- -- 94
2018-10-22 05:00:00 15.8 3 Sur 7 Noroeste 0 -- -- 95
2018-10-22 04:00:00 16.1 5 Sudoeste 10 Oeste 0 -- -- 92
2018-10-22 03:00:00 16.1 4 Oeste 12 Oeste 0 -- -- 94
2018-10-22 02:00:00 15.8 3 Sudoeste 8 Sudoeste 0 -- -- 98
2018-10-22 01:00:00 15.7 3 Oeste 7 Noroeste 0 -- -- 98
2018-10-22 00:00:00 15.8 0 Calma 5 Noroeste 0 -- -- 98
2018-10-21 23:00:00 15.8 0 Calma 6 Noroeste 0 -- -- 98
2018-10-21 22:00:00 15.8 3 Oeste 6 Oeste 0 -- -- 98
2018-10-21 21:00:00 15.8 0 Calma 8 Oeste 0 -- -- 98
2018-10-21 20:00:00 15.8 3 Oeste 6 Nordeste 0 -- -- 98
2018-10-21 19:00:00 16 5 Nordeste 12 Nordeste 0 -- -- 97
2018-10-21 18:00:00 16.2 5 Nordeste 15 Nordeste 0 -- -- 97
2018-10-21 17:00:00 16.1 8 Nordeste 19 Nordeste 0 -- -- 97
2018-10-21 16:00:00 17.7 10 Nordeste 17 Nordeste 0 -- -- 89
2018-10-21 15:00:00 18.5 6 Nordeste 14 Nordeste 0 -- -- 87
2018-10-21 14:00:00 17.9 9 Nordeste 18 Norte 0 -- -- 89
2018-10-21 13:00:00 17.6 7 Nordeste 14 Nordeste 0 -- -- 90
2018-10-21 12:00:00 17.1 5 Nordeste 8 Nordeste 0 -- -- 92
2018-10-21 11:00:00 15.1 2 Oeste 9 Sudeste 0 -- -- 100
2018-10-21 10:00:00 13.2 5 Sudeste 13 Sudeste 0 -- -- 100
2018-10-21 09:00:00 12.1 3 Sudeste 13 Sudeste 0 -- -- 100
2018-10-21 08:00:00 12.1 9 Sur 13 Sur 0 -- -- 100
2018-10-21 07:00:00 12 5 Sur 9 Sudeste 0 -- -- 100
2018-10-21 06:00:00 11.8 3 Sur 9 Sur 0 -- -- 100
2018-10-21 05:00:00 12.1 0 Calma 5 Sudoeste 0 -- -- 98
2018-10-21 04:00:00 12.9 3 Sudeste 7 Sudeste 0 -- -- 98
2018-10-21 03:00:00 13.2 0 Calma 5 Noroeste 0 -- -- 97
2018-10-21 02:00:00 14.5 0 Calma 6 Sudeste 0 -- -- 96
2018-10-21 01:00:00 15.3 4 Sur 12 Sudeste 0 -- -- 94
2018-10-21 00:00:00 16.7 3 Sur 9 Nordeste 0 -- -- 92
2018-10-20 23:00:00 17.1 6 Este 18 Nordeste 0 -- -- 92
2018-10-20 22:00:00 16.6 10 Este 21 Nordeste 0 -- -- 96
2018-10-20 21:00:00 15.7 3 Norte 9 Noroeste 0 -- -- 96
2018-10-20 20:00:00 16 6 Noroeste 8 Noroeste 0 -- -- 93
2018-10-20 19:00:00 17.1 4 Nordeste 17 Nordeste 0 -- -- 91
2018-10-20 18:00:00 17.6 13 Nordeste 20 Este 0 -- -- 90
2018-10-20 17:00:00 18.2 7 Nordeste 15 Nordeste 0 -- -- 88
2018-10-20 16:00:00 18 8 Nordeste 17 Nordeste 0 -- -- 87
2018-10-20 15:00:00 18.3 12 Nordeste 16 Nordeste 0 -- -- 84
2018-10-20 14:00:00 19.1 3 Este 9 Sudeste 0 -- -- 79
2018-10-20 13:00:00 18.1 6 Sudeste 9 Sudeste 0 -- -- 85
2018-10-20 12:00:00 17.2 4 Sudeste 13 Sudeste 0 -- -- 88
2018-10-20 11:00:00 15.6 8 Sudeste 14 Sudeste 0 -- -- 95
2018-10-20 10:00:00 14.2 5 Sur 16 Sudeste 0 -- -- 98
2018-10-20 09:00:00 13.6 5 Sur 10 Sudeste 0 -- -- 98
2018-10-20 08:00:00 13.7 5 Sur 12 Sudeste 0 -- -- 97
2018-10-20 07:00:00 13.8 5 Sur 13 Sudeste 0 -- -- 97
2018-10-20 06:00:00 13.8 4 Sur 13 Sudeste 0 -- -- 97
2018-10-20 05:00:00 14.5 6 Sudeste 10 Sudeste 0 -- -- 97
2018-10-20 04:00:00 14.9 6 Sur 11 Sudeste 0 -- -- 97
2018-10-20 03:00:00 14.5 7 Sur 12 Sudeste 0 -- -- 98
2018-10-20 02:00:00 13.8 0 Calma 8 Sudoeste 0 -- -- 96
2018-10-20 01:00:00 15 4 Sudeste 8 Oeste 0 -- -- 95
2018-10-20 00:00:00 16.1 4 Oeste 11 Oeste 0 -- -- 94
2018-10-19 23:00:00 15.6 2 Sudoeste 5 Oeste 0 -- -- 96
2018-10-19 22:00:00 15.6 4 Sudoeste 7 Oeste 0 -- -- 96
2018-10-19 21:00:00 15.8 4 Sudoeste 5 Sudoeste 0 -- -- 94
2018-10-19 20:00:00 16.6 4 Noroeste 9 Norte 0 -- -- 92
2018-10-19 19:00:00 17.9 4 Norte 13 Norte 0 -- -- 88
2018-10-19 18:00:00 18.7 6 Nordeste 17 Norte 0 -- -- 86
2018-10-19 17:00:00 19.5 9 Norte 19 Nordeste 0 -- -- 84
2018-10-19 16:00:00 20.4 12 Noroeste 22 Noroeste 0 -- -- 80
2018-10-19 15:00:00 20.2 9 Noroeste 17 Noroeste 0 -- -- 83
2018-10-19 14:00:00 19.9 7 Noroeste 21 Oeste 0 -- -- 84
2018-10-19 13:00:00 19.8 10 Oeste 22 Oeste 0 -- -- 83
2018-10-19 12:00:00 19 9 Noroeste 17 Noroeste 0 -- -- 86
2018-10-19 11:00:00 17.9 4 Sudoeste 10 Oeste 0 -- -- 91
2018-10-19 10:00:00 17 0 Calma 5 Oeste 0 -- -- 94
2018-10-19 09:00:00 16.9 4 Oeste 9 Oeste 0 -- -- 93
2018-10-19 08:00:00 16.8 3 Sudoeste 10 Oeste 0 -- -- 93
2018-10-19 07:00:00 16.8 0 Calma 14 Oeste 0 -- -- 93
2018-10-19 06:00:00 16.8 6 Oeste 13 Oeste 0 -- -- 94
2018-10-19 05:00:00 16.5 3 Oeste 6 Sur 0 -- -- 95
2018-10-19 04:00:00 16.6 2 Sur 9 Oeste 0 -- -- 95
2018-10-19 03:00:00 16.3 0 Calma 5 Este 0 -- -- 96
2018-10-19 02:00:00 16.3 0 Calma 5 Norte 0 -- -- 94
2018-10-19 01:00:00 16.5 2 Sudeste 6 Sur 0 -- -- 95
2018-10-19 00:00:00 16.3 0 Calma 5 Sudeste 0 -- -- 98
2018-10-18 23:00:00 16.4 0 Calma 6 Sudeste 0 -- -- 98
2018-10-18 22:00:00 16.5 2 Sur 6 Sudeste 0 -- -- 97
2018-10-18 21:00:00 16.8 3 Sur 6 Sur 0 -- -- 95
2018-10-18 20:00:00 17.1 3 Sudoeste 9 Oeste 0 -- -- 94
2018-10-18 19:00:00 17.4 4 Sudoeste 10 Oeste 0 -- -- 95
2018-10-18 18:00:00 17.4 4 Oeste 8 Oeste 0 -- -- 96
2018-10-18 17:00:00 17.4 4 Oeste 9 Noroeste 0.4 -- -- 97
2018-10-18 16:00:00 17.3 3 Noroeste 12 Noroeste 1 -- -- 97
2018-10-18 15:00:00 17.4 5 Oeste 10 Noroeste 4.4 -- -- 94
2018-10-18 14:00:00 17.9 5 Noroeste 11 Noroeste 0 -- -- 93
2018-10-18 13:00:00 18.2 4 Norte 8 Norte 0 -- -- 90
2018-10-18 12:00:00 17.9 5 Sudeste 7 Sur 0 -- -- 94
2018-10-18 11:00:00 16.5 4 Sudeste 8 Sudeste 0 -- -- 98
2018-10-18 10:00:00 15.7 3 Sur 7 Sudeste 0 -- -- 99
2018-10-18 09:00:00 15.4 2 Sur 5 Sur 0 -- -- 99
2018-10-18 08:00:00 15.4 0 Calma 5 Sur 0 -- -- 99
2018-10-18 07:00:00 15.4 2 Sudeste 4 Sur 0 -- -- 98
2018-10-18 06:00:00 15.5 0 Calma 5 Sur 0 -- -- 98
2018-10-18 05:00:00 15.6 2 Sur 4 Sudeste 0 -- -- 98
2018-10-18 04:00:00 15.7 2 Sur 6 Sur 0 -- -- 97
2018-10-18 03:00:00 15.8 0 Calma 9 Sudoeste 0 -- -- 97
2018-10-18 02:00:00 15.8 4 Sur 7 Sur 0 -- -- 96
2018-10-18 01:00:00 16.2 0 Calma 5 Noroeste 0 -- -- 95
2018-10-18 00:00:00 16.5 2 Norte 6 Nordeste 0 -- -- 93